Time;durP1;ratioP1;P1;durP2;ratioP2;P2;SDS_P1;SDS_P2;PMS_P1;PMS_P2;Temp;Humidity;BMP_temperature;BMP_pressure;BME280_temperature;BME280_humidity;BME280_pressure;Samples;Min_cycle;Max_cycle;Signal;HPM_P1;HPM_P2
2022/06/24 00:01:53;;;;;;;5.57;2.95;;;;;;;;;;5032237;28;20146;-75
2022/06/24 00:04:25;;;;;;;7.45;3.13;;;;;;;;;;5031307;28;20051;-74
2022/06/24 00:06:51;;;;;;;7.93;3.47;;;;;;;;;;5030839;28;20119;-76
2022/06/24 00:09:16;;;;;;;7.15;3.50;;;;;;;;;;5032131;28;20049;-77
2022/06/24 00:11:42;;;;;;;6.80;3.22;;;;;;;;;;5031969;28;20048;-77
2022/06/24 00:14:15;;;;;;;6.80;3.40;;;;;;;;;;5014360;28;20431;-77
2022/06/24 00:17:07;;;;;;;10.10;4.43;;;;;;;;;;5010687;28;20040;-75
2022/06/24 00:19:33;;;;;;;5.88;4.00;;;;;;;;;;5044316;28;20704;-76
2022/06/24 00:21:59;;;;;;;8.98;3.85;;;;;;;;;;5030811;28;20029;-75
2022/06/24 00:24:25;;;;;;;6.13;3.83;;;;;;;;;;5030860;28;20581;-75
2022/06/24 00:26:50;;;;;;;7.00;3.92;;;;;;;;;;5031145;28;20100;-76
2022/06/24 00:29:19;;;;;;;9.30;3.60;;;;;;;;;;5011744;28;20046;-76
2022/06/24 00:32:04;;;;;;;6.68;3.50;;;;;;;;;;5031962;28;20087;-76
2022/06/24 00:34:30;;;;;;;6.75;3.42;;;;;;;;;;5030105;28;20073;-76
2022/06/24 00:36:56;;;;;;;5.13;3.28;;;;;;;;;;5030810;28;20064;-77
2022/06/24 00:39:31;;;;;;;6.35;2.90;;;;;;;;;;5010888;28;20121;-77
2022/06/24 00:41:57;;;;;;;7.35;3.20;;;;;;;;;;5030413;28;20034;-77
2022/06/24 00:44:22;;;;;;;9.57;3.80;;;;;;;;;;5031873;28;20034;-76
2022/06/24 00:46:48;;;;;;;6.22;3.30;;;;;;;;;;5034587;28;20025;-76
2022/06/24 00:49:13;;;;;;;5.55;3.17;;;;;;;;;;5014745;28;20116;-77
2022/06/24 00:51:38;;;;;;;5.07;2.90;;;;;;;;;;5031725;28;20033;-77
2022/06/24 00:54:08;;;;;;;7.13;2.78;;;;;;;;;;5035503;28;20037;-77
2022/06/24 00:56:33;;;;;;;4.80;3.00;;;;;;;;;;5034416;28;20037;-77
2022/06/24 00:59:00;;;;;;;5.15;2.75;;;;;;;;;;5034169;28;20026;-76
2022/06/24 01:01:34;;;;;;;7.22;2.92;;;;;;;;;;5035145;28;20056;-77
2022/06/24 01:04:00;;;;;;;5.10;2.97;;;;;;;;;;5014515;28;20401;-75
2022/06/24 01:06:25;;;;;;;6.32;3.10;;;;;;;;;;5014570;28;20056;-77
2022/06/24 01:08:51;;;;;;;7.82;2.80;;;;;;;;;;5033880;28;20065;-76
2022/06/24 01:11:23;;;;;;;7.40;3.20;;;;;;;;;;5014182;28;20029;-76
2022/06/24 01:13:50;;;;;;;11.55;3.30;;;;;;;;;;5031511;28;20037;-76
2022/06/24 01:16:15;;;;;;;5.63;2.88;;;;;;;;;;5033243;28;20044;-76
2022/06/24 01:18:41;;;;;;;4.13;2.63;;;;;;;;;;5034022;28;20033;-76
2022/06/24 01:21:06;;;;;;;10.70;3.25;;;;;;;;;;5033627;28;20025;-76
2022/06/24 01:23:31;;;;;;;6.22;3.25;;;;;;;;;;5043798;28;21199;-76
2022/06/24 01:25:57;;;;;;;8.60;2.90;;;;;;;;;;5040624;28;20025;-75
2022/06/24 01:28:22;;;;;;;5.68;2.70;;;;;;;;;;5042186;28;20037;-77
2022/06/24 01:30:48;;;;;;;5.68;2.92;;;;;;;;;;5039274;28;20799;-78
2022/06/24 01:33:13;;;;;;;5.18;3.00;;;;;;;;;;5040203;28;20037;-77
2022/06/24 01:35:39;;;;;;;7.45;3.25;;;;;;;;;;5016218;28;20025;-77
2022/06/24 01:38:04;;;;;;;7.30;2.75;;;;;;;;;;5038495;28;20067;-77
2022/06/24 01:40:30;;;;;;;7.45;3.05;;;;;;;;;;5033762;28;20029;-76
2022/06/24 01:42:55;;;;;;;5.88;3.10;;;;;;;;;;5039476;28;20052;-76
2022/06/24 01:45:21;;;;;;;6.80;2.92;;;;;;;;;;5033481;28;20553;-76
2022/06/24 01:47:46;;;;;;;10.02;3.53;;;;;;;;;;5020986;28;20033;-77
2022/06/24 01:50:11;;;;;;;6.95;2.90;;;;;;;;;;5035286;28;20116;-77
2022/06/24 01:52:37;;;;;;;3.67;2.45;;;;;;;;;;5033356;28;20393;-76
2022/06/24 01:55:04;;;;;;;6.40;2.67;;;;;;;;;;5032763;28;20029;-76
2022/06/24 01:57:29;;;;;;;5.28;2.85;;;;;;;;;;5034625;28;20033;-77
2022/06/24 01:59:58;;;;;;;7.80;3.08;;;;;;;;;;5016500;28;20103;-76
2022/06/24 02:02:23;;;;;;;5.30;2.95;;;;;;;;;;5033487;28;20064;-77
2022/06/24 02:04:49;;;;;;;5.43;2.90;;;;;;;;;;5034112;28;20057;-75
2022/06/24 02:07:14;;;;;;;6.25;2.90;;;;;;;;;;5049440;28;20037;-75
2022/06/24 02:15:08;;;;;;;5.65;2.95;;;;;;;;;;5032952;28;20042;-76
2022/06/24 02:17:33;;;;;;;6.13;2.90;;;;;;;;;;5031682;28;20044;-76
2022/06/24 02:19:59;;;;;;;6.03;2.80;;;;;;;;;;5033752;28;20029;-77
2022/06/24 02:22:25;;;;;;;6.15;2.92;;;;;;;;;;5033575;28;20468;-76
2022/06/24 02:24:50;;;;;;;5.75;2.95;;;;;;;;;;5032597;28;20408;-77
2022/06/24 02:27:16;;;;;;;10.35;3.10;;;;;;;;;;5016257;28;20030;-76
2022/06/24 02:29:41;;;;;;;6.43;2.90;;;;;;;;;;5032224;28;20053;-77
2022/06/24 02:32:07;;;;;;;6.10;2.90;;;;;;;;;;5032317;28;20028;-76
2022/06/24 02:34:32;;;;;;;8.32;2.90;;;;;;;;;;5035173;28;20043;-76
2022/06/24 02:36:58;;;;;;;7.00;3.22;;;;;;;;;;5034818;28;20025;-76
2022/06/24 02:39:23;;;;;;;5.00;3.08;;;;;;;;;;5015255;28;20040;-76
2022/06/24 02:41:49;;;;;;;6.90;2.75;;;;;;;;;;4999358;28;20020;-76
2022/06/24 02:44:14;;;;;;;7.53;2.72;;;;;;;;;;5033611;28;20064;-77
2022/06/24 02:46:39;;;;;;;4.70;3.10;;;;;;;;;;5015683;28;20025;-77
2022/06/24 02:49:05;;;;;;;8.50;2.92;;;;;;;;;;5033433;28;20032;-76
2022/06/24 02:51:30;;;;;;;6.63;3.25;;;;;;;;;;5032111;28;20021;-76
2022/06/24 02:53:56;;;;;;;5.72;2.97;;;;;;;;;;5032000;28;20069;-77
2022/06/24 02:56:21;;;;;;;5.60;2.90;;;;;;;;;;5032092;28;20022;-77
2022/06/24 02:58:47;;;;;;;9.02;3.60;;;;;;;;;;5033219;28;20033;-77
2022/06/24 03:01:12;;;;;;;7.82;3.20;;;;;;;;;;5012136;28;20094;-77
2022/06/24 03:03:37;;;;;;;6.50;2.88;;;;;;;;;;5063139;28;20033;-75
2022/06/24 03:06:03;;;;;;;6.82;3.25;;;;;;;;;;5014730;28;20029;-76
2022/06/24 03:08:29;;;;;;;6.35;3.20;;;;;;;;;;4985947;28;20492;-77
2022/06/24 03:10:55;;;;;;;3.78;2.85;;;;;;;;;;5033010;28;20033;-76
2022/06/24 03:13:20;;;;;;;6.75;3.40;;;;;;;;;;5031704;28;20042;-76
2022/06/24 03:15:48;;;;;;;6.15;3.13;;;;;;;;;;5012720;28;20504;-77
2022/06/24 03:18:14;;;;;;;6.53;3.30;;;;;;;;;;5023102;28;20041;-75
2022/06/24 03:20:39;;;;;;;5.97;3.47;;;;;;;;;;5035131;28;20467;-78
2022/06/24 03:23:05;;;;;;;6.00;3.70;;;;;;;;;;5041201;28;20136;-77
2022/06/24 03:25:31;;;;;;;7.90;3.35;;;;;;;;;;5024637;28;20017;-79
2022/06/24 03:27:56;;;;;;;5.38;3.53;;;;;;;;;;5034614;28;20124;-77
2022/06/24 03:30:22;;;;;;;7.88;3.30;;;;;;;;;;5042915;28;20034;-77
2022/06/24 03:32:47;;;;;;;4.68;2.97;;;;;;;;;;5022324;28;20088;-78
2022/06/24 03:35:13;;;;;;;7.43;3.85;;;;;;;;;;5033625;28;20087;-76
2022/06/24 03:37:39;;;;;;;5.20;3.35;;;;;;;;;;5025715;28;20456;-78
2022/06/24 03:40:04;;;;;;;6.75;4.03;;;;;;;;;;5029160;28;20116;-78
2022/06/24 03:42:30;;;;;;;6.03;3.40;;;;;;;;;;5026445;28;20476;-77
2022/06/24 03:44:55;;;;;;;8.35;3.42;;;;;;;;;;5024520;28;20080;-76
2022/06/24 03:47:21;;;;;;;8.57;3.40;;;;;;;;;;5027475;28;20029;-77
2022/06/24 03:49:46;;;;;;;6.45;3.05;;;;;;;;;;5017022;28;20032;-77
2022/06/24 03:52:12;;;;;;;8.90;3.20;;;;;;;;;;5024733;28;20037;-78
2022/06/24 03:54:37;;;;;;;6.35;2.97;;;;;;;;;;5026603;28;20026;-77
2022/06/24 03:57:03;;;;;;;5.13;3.05;;;;;;;;;;5018268;28;20034;-77
2022/06/24 03:59:28;;;;;;;8.27;3.30;;;;;;;;;;5027710;28;20074;-78
2022/06/24 04:01:54;;;;;;;11.05;7.32;;;;;;;;;;5034679;28;20370;-79
2022/06/24 04:04:19;;;;;;;10.15;5.47;;;;;;;;;;5025737;28;20032;-76
2022/06/24 04:06:45;;;;;;;5.28;2.97;;;;;;;;;;5022284;28;20045;-76
2022/06/24 04:09:10;;;;;;;6.43;3.30;;;;;;;;;;5010192;28;20108;-77
2022/06/24 04:11:36;;;;;;;5.70;2.90;;;;;;;;;;5032271;28;20033;-76
2022/06/24 04:14:01;;;;;;;7.63;3.35;;;;;;;;;;5032572;28;20597;-78
2022/06/24 04:16:27;;;;;;;7.05;3.00;;;;;;;;;;5032624;28;20026;-78
2022/06/24 04:18:52;;;;;;;5.00;2.78;;;;;;;;;;5034760;28;20099;-76
2022/06/24 04:21:18;;;;;;;11.13;2.80;;;;;;;;;;5038054;28;20125;-76
2022/06/24 04:23:43;;;;;;;4.90;2.65;;;;;;;;;;5044996;28;20030;-76
2022/06/24 04:26:09;;;;;;;6.05;2.80;;;;;;;;;;5037959;28;20033;-76
2022/06/24 04:28:35;;;;;;;6.78;2.70;;;;;;;;;;5035508;28;20057;-77
2022/06/24 04:31:00;;;;;;;7.25;2.80;;;;;;;;;;5036471;28;20416;-76
2022/06/24 04:33:26;;;;;;;6.35;3.40;;;;;;;;;;5044693;28;20112;-77
2022/06/24 04:35:51;;;;;;;6.10;3.30;;;;;;;;;;5016312;28;20087;-77
2022/06/24 04:38:17;;;;;;;8.85;2.90;;;;;;;;;;5018457;28;20109;-77
2022/06/24 04:40:42;;;;;;;7.43;3.00;;;;;;;;;;5034689;28;20041;-78
2022/06/24 04:43:08;;;;;;;6.25;2.70;;;;;;;;;;5035314;28;20021;-79
2022/06/24 04:45:33;;;;;;;6.78;3.00;;;;;;;;;;5046721;28;20052;-77
2022/06/24 04:47:59;;;;;;;5.68;2.80;;;;;;;;;;5028528;28;20036;-77
2022/06/24 04:50:24;;;;;;;7.05;2.70;;;;;;;;;;5044491;28;20045;-77
2022/06/24 04:52:50;;;;;;;3.60;2.40;;;;;;;;;;5035964;28;20519;-77
2022/06/24 04:55:15;;;;;;;9.20;2.67;;;;;;;;;;5034650;28;20064;-76
2022/06/24 04:57:41;;;;;;;5.03;2.63;;;;;;;;;;5034465;28;20029;-77
2022/06/24 05:00:09;;;;;;;5.13;2.55;;;;;;;;;;5050928;28;20049;-76
2022/06/24 05:02:34;;;;;;;6.53;2.70;;;;;;;;;;5034745;28;20037;-76
2022/06/24 05:04:59;;;;;;;5.90;2.65;;;;;;;;;;5035831;28;20041;-77
2022/06/24 05:07:25;;;;;;;7.20;2.60;;;;;;;;;;5035821;28;20025;-77
2022/06/24 05:09:50;;;;;;;7.15;2.65;;;;;;;;;;5014825;28;20033;-77
2022/06/24 05:12:16;;;;;;;6.85;2.75;;;;;;;;;;5014688;28;20030;-77
2022/06/24 05:14:41;;;;;;;5.45;3.50;;;;;;;;;;5033645;28;20040;-76
2022/06/24 05:17:07;;;;;;;4.85;2.50;;;;;;;;;;5035027;28;20029;-78
2022/06/24 05:19:32;;;;;;;7.65;2.83;;;;;;;;;;5051313;28;20388;-76
2022/06/24 05:21:58;;;;;;;4.25;2.67;;;;;;;;;;5028519;28;20017;-77
2022/06/24 05:24:23;;;;;;;5.15;2.83;;;;;;;;;;5034091;28;20090;-77
2022/06/24 05:26:49;;;;;;;9.35;2.80;;;;;;;;;;5034196;28;20026;-78
2022/06/24 05:29:15;;;;;;;7.60;2.55;;;;;;;;;;5034948;28;20052;-77
2022/06/24 05:31:40;;;;;;;6.80;2.90;;;;;;;;;;5017077;28;20370;-77
2022/06/24 05:34:08;;;;;;;5.00;2.78;;;;;;;;;;5035055;28;20120;-77
2022/06/24 05:36:34;;;;;;;3.55;2.50;;;;;;;;;;5033993;28;20021;-76
2022/06/24 05:39:03;;;;;;;6.85;2.60;;;;;;;;;;5035166;28;20447;-77
2022/06/24 05:41:28;;;;;;;4.55;2.40;;;;;;;;;;5043175;28;20026;-77
2022/06/24 05:43:54;;;;;;;7.68;2.65;;;;;;;;;;5025104;28;20037;-76
2022/06/24 05:46:19;;;;;;;4.88;2.45;;;;;;;;;;5017692;28;20500;-76
2022/06/24 05:48:45;;;;;;;3.17;2.28;;;;;;;;;;5035531;28;20080;-77
2022/06/24 05:51:11;;;;;;;4.60;2.80;;;;;;;;;;5017448;28;20033;-77
2022/06/24 05:56:20;;;;;;;8.10;3.53;;;;;;;;;;5027691;28;20029;-78
2022/06/24 05:58:46;;;;;;;6.40;2.35;;;;;;;;;;5034567;28;20032;-78
2022/06/24 06:01:11;;;;;;;6.78;2.63;;;;;;;;;;5033483;28;20053;-76
2022/06/24 06:03:37;;;;;;;5.75;2.97;;;;;;;;;;5013853;28;20108;-76
2022/06/24 06:06:03;;;;;;;4.15;2.50;;;;;;;;;;5023634;28;20033;-79
2022/06/24 06:08:28;;;;;;;7.75;2.70;;;;;;;;;;5034506;28;20036;-77
2022/06/24 06:10:54;;;;;;;5.25;2.60;;;;;;;;;;5013808;28;20049;-77
2022/06/24 06:13:19;;;;;;;7.20;2.50;;;;;;;;;;5027537;28;20029;-77
2022/06/24 06:15:45;;;;;;;6.97;2.58;;;;;;;;;;5033583;28;20412;-77
2022/06/24 06:18:10;;;;;;;5.28;2.63;;;;;;;;;;5033310;28;20033;-77
2022/06/24 06:20:36;;;;;;;5.70;2.40;;;;;;;;;;5034402;28;20029;-77
2022/06/24 06:23:02;;;;;;;4.78;2.30;;;;;;;;;;5033337;28;20029;-77
2022/06/24 06:25:27;;;;;;;7.85;3.72;;;;;;;;;;4997107;28;20084;-77
2022/06/24 06:27:52;;;;;;;6.05;2.42;;;;;;;;;;5027511;28;20019;-77
2022/06/24 06:30:18;;;;;;;3.95;2.22;;;;;;;;;;5038592;28;20040;-79
2022/06/24 06:32:43;;;;;;;4.63;2.78;;;;;;;;;;5048111;28;20028;-78
2022/06/24 06:35:09;;;;;;;3.60;2.28;;;;;;;;;;5033140;28;20554;-77
2022/06/24 06:37:34;;;;;;;5.05;2.42;;;;;;;;;;5033330;28;20037;-77
2022/06/24 06:40:00;;;;;;;3.83;2.13;;;;;;;;;;5013248;28;20033;-76
2022/06/24 06:42:25;;;;;;;4.20;2.28;;;;;;;;;;5012588;28;20105;-77
2022/06/24 06:44:51;;;;;;;3.67;2.13;;;;;;;;;;5033087;28;20029;-77
2022/06/24 06:47:16;;;;;;;4.55;2.30;;;;;;;;;;5034219;28;20029;-77
2022/06/24 06:49:42;;;;;;;7.82;4.93;;;;;;;;;;5032859;28;20033;-81
2022/06/24 06:52:07;;;;;;;6.03;2.53;;;;;;;;;;5000221;28;20025;-76
2022/06/24 06:54:33;;;;;;;3.63;2.10;;;;;;;;;;5032961;28;20132;-78
2022/06/24 06:56:58;;;;;;;4.60;1.90;;;;;;;;;;5016124;28;20026;-78
2022/06/24 06:59:24;;;;;;;4.60;2.20;;;;;;;;;;5016130;28;20042;-78
2022/06/24 07:01:50;;;;;;;4.20;2.08;;;;;;;;;;5032747;28;20037;-78
2022/06/24 07:04:15;;;;;;;3.88;1.88;;;;;;;;;;5016072;28;20116;-78
2022/06/24 07:06:41;;;;;;;3.75;1.60;;;;;;;;;;5032854;28;20476;-78
2022/06/24 07:09:06;;;;;;;4.03;1.75;;;;;;;;;;5032902;28;20481;-79
2022/06/24 07:11:32;;;;;;;2.50;1.90;;;;;;;;;;5016270;28;20033;-76
2022/06/24 07:13:57;;;;;;;2.55;1.75;;;;;;;;;;5033800;28;20045;-78
2022/06/24 07:16:23;;;;;;;5.38;1.77;;;;;;;;;;5011618;28;20021;-77
2022/06/24 07:18:48;;;;;;;14.70;3.75;;;;;;;;;;5037618;28;20499;-79
2022/06/24 07:21:14;;;;;;;8.02;3.10;;;;;;;;;;5033346;28;20044;-78
2022/06/24 07:23:40;;;;;;;8.82;3.08;;;;;;;;;;5042912;28;20038;-77
2022/06/24 07:26:05;;;;;;;6.32;3.13;;;;;;;;;;5032066;28;20025;-77
2022/06/24 07:28:31;;;;;;;3.92;2.22;;;;;;;;;;5012562;28;20091;-80
2022/06/24 07:30:56;;;;;;;8.32;2.40;;;;;;;;;;5012936;28;20034;-77
2022/06/24 07:33:23;;;;;;;19.52;3.83;;;;;;;;;;5033581;28;20037;-82
2022/06/24 07:35:50;;;;;;;4.97;2.17;;;;;;;;;;5032330;28;20029;-81
2022/06/24 07:38:15;;;;;;;4.32;2.38;;;;;;;;;;5031750;28;20033;-78
2022/06/24 07:40:41;;;;;;;8.15;2.72;;;;;;;;;;5032549;28;20033;-78
2022/06/24 07:43:07;;;;;;;4.45;2.20;;;;;;;;;;5033670;28;20116;-78
2022/06/24 07:45:32;;;;;;;7.80;2.92;;;;;;;;;;5031748;28;20021;-77
2022/06/24 07:47:58;;;;;;;7.45;2.33;;;;;;;;;;5032439;28;20106;-78
2022/06/24 07:50:24;;;;;;;4.05;1.83;;;;;;;;;;5033077;28;20025;-79
2022/06/24 07:52:49;;;;;;;5.82;2.50;;;;;;;;;;5011932;28;20481;-78
2022/06/24 07:57:59;;;;;;;3.67;1.83;;;;;;;;;;5014458;28;20133;-80
2022/06/24 08:00:24;;;;;;;4.40;2.00;;;;;;;;;;5011771;28;20140;-78
2022/06/24 08:02:49;;;;;;;3.45;1.73;;;;;;;;;;5031670;28;20029;-78
2022/06/24 08:05:15;;;;;;;5.38;1.77;;;;;;;;;;5014852;28;20021;-77
2022/06/24 08:07:43;;;;;;;3.42;1.52;;;;;;;;;;4995458;28;20038;-77
2022/06/24 08:10:09;;;;;;;4.80;1.83;;;;;;;;;;5028699;28;20075;-78
2022/06/24 08:12:34;;;;;;;3.72;1.80;;;;;;;;;;5012030;28;20120;-78
2022/06/24 08:14:59;;;;;;;4.32;1.90;;;;;;;;;;5012410;28;20030;-79
2022/06/24 08:17:25;;;;;;;4.13;1.85;;;;;;;;;;5028924;28;20034;-78
2022/06/24 08:19:51;;;;;;;3.10;2.08;;;;;;;;;;5050333;28;20033;-78
2022/06/24 08:22:16;;;;;;;2.78;1.80;;;;;;;;;;5050299;28;20033;-79
2022/06/24 08:24:42;;;;;;;5.00;1.90;;;;;;;;;;5017046;28;20063;-79
2022/06/24 08:27:07;;;;;;;4.85;1.80;;;;;;;;;;5011832;28;20444;-78
2022/06/24 08:29:33;;;;;;;2.53;1.90;;;;;;;;;;5031396;28;20428;-78
2022/06/24 08:31:58;;;;;;;3.97;1.90;;;;;;;;;;5031293;28;20060;-77
2022/06/24 08:34:24;;;;;;;3.78;1.70;;;;;;;;;;5031161;28;20536;-78
2022/06/24 08:36:50;;;;;;;5.05;1.80;;;;;;;;;;5014159;28;20117;-78
2022/06/24 08:39:15;;;;;;;3.25;1.70;;;;;;;;;;5032808;28;20116;-78
2022/06/24 08:41:41;;;;;;;3.60;1.48;;;;;;;;;;5038801;28;20029;-79
2022/06/24 08:44:07;;;;;;;2.83;1.95;;;;;;;;;;5014790;28;20024;-81
2022/06/24 08:46:32;;;;;;;2.45;1.63;;;;;;;;;;5014931;28;20033;-78
2022/06/24 08:48:58;;;;;;;6.47;1.60;;;;;;;;;;5030905;28;20029;-79
2022/06/24 08:51:25;;;;;;;2.63;1.60;;;;;;;;;;5032088;28;20038;-78
2022/06/24 08:53:50;;;;;;;3.70;1.80;;;;;;;;;;5014407;28;20018;-77
2022/06/24 08:56:16;;;;;;;2.70;2.03;;;;;;;;;;5014660;28;20041;-77
2022/06/24 08:58:41;;;;;;;3.08;1.77;;;;;;;;;;4997708;28;20499;-78
2022/06/24 09:01:07;;;;;;;3.83;1.52;;;;;;;;;;5030556;28;20103;-77
2022/06/24 09:03:32;;;;;;;3.63;1.60;;;;;;;;;;5030897;28;20405;-80
2022/06/24 09:05:57;;;;;;;2.72;1.60;;;;;;;;;;5033351;28;20053;-78
2022/06/24 09:08:23;;;;;;;2.72;1.50;;;;;;;;;;5034615;28;20025;-77
2022/06/24 09:11:07;;;;;;;3.33;1.63;;;;;;;;;;5034650;28;20447;-79
2022/06/24 09:13:45;;;;;;;2.22;1.50;;;;;;;;;;5034917;28;20045;-77
2022/06/24 09:16:10;;;;;;;3.90;1.73;;;;;;;;;;5032013;28;20034;-78
2022/06/24 09:18:36;;;;;;;2.85;1.73;;;;;;;;;;5034357;28;20032;-78
2022/06/24 09:21:02;;;;;;;3.63;1.75;;;;;;;;;;5020753;28;20038;-76
2022/06/24 09:23:27;;;;;;;4.50;1.70;;;;;;;;;;5016584;28;20084;-79
2022/06/24 09:25:54;;;;;;;3.30;1.90;;;;;;;;;;5030821;28;20034;-79
2022/06/24 09:28:23;;;;;;;3.15;1.80;;;;;;;;;;5037594;28;20464;-77
2022/06/24 09:30:49;;;;;;;2.97;1.77;;;;;;;;;;5036208;28;20455;-80
2022/06/24 09:33:16;;;;;;;2.20;1.50;;;;;;;;;;5038326;28;20033;-77
2022/06/24 09:35:41;;;;;;;3.65;1.52;;;;;;;;;;5016324;28;20026;-78
2022/06/24 09:38:07;;;;;;;4.47;1.50;;;;;;;;;;5037735;28;20032;-78
2022/06/24 09:40:32;;;;;;;2.95;1.40;;;;;;;;;;5018938;28;20030;-78
2022/06/24 09:43:01;;;;;;;3.40;1.50;;;;;;;;;;5035642;28;20037;-78
2022/06/24 09:45:47;;;;;;;2.58;1.35;;;;;;;;;;5034123;28;20037;-78
2022/06/24 09:48:26;;;;;;;3.30;1.80;;;;;;;;;;5034731;28;20034;-78
2022/06/24 09:50:52;;;;;;;4.55;1.75;;;;;;;;;;5029044;28;20029;-78
2022/06/24 09:53:17;;;;;;;2.33;1.50;;;;;;;;;;5050407;28;20392;-77
2022/06/24 09:55:43;;;;;;;3.75;1.70;;;;;;;;;;5044866;28;20491;-79
2022/06/24 09:58:08;;;;;;;4.18;2.15;;;;;;;;;;5039160;28;20049;-80
2022/06/24 10:00:51;;;;;;;3.03;1.52;;;;;;;;;;5040671;28;20085;-78
2022/06/24 10:03:17;;;;;;;2.38;1.80;;;;;;;;;;5037521;28;20056;-78
2022/06/24 10:05:46;;;;;;;2.33;1.80;;;;;;;;;;5037202;28;20095;-79
2022/06/24 10:08:13;;;;;;;7.05;1.67;;;;;;;;;;5021067;28;20504;-82
2022/06/24 10:10:39;;;;;;;3.33;1.30;;;;;;;;;;5024275;28;20033;-82
2022/06/24 10:13:08;;;;;;;2.58;1.42;;;;;;;;;;5037352;28;20177;-80
2022/06/24 10:15:34;;;;;;;3.72;1.50;;;;;;;;;;5004680;28;20400;-80
2022/06/24 10:18:00;;;;;;;3.85;1.55;;;;;;;;;;5038132;28;20036;-79
2022/06/24 10:20:25;;;;;;;7.55;1.60;;;;;;;;;;5023973;28;20072;-80
2022/06/24 10:22:51;;;;;;;3.83;1.38;;;;;;;;;;5043829;28;20053;-81
2022/06/24 10:25:18;;;;;;;2.38;1.60;;;;;;;;;;5048114;28;20052;-77
2022/06/24 10:27:58;;;;;;;2.42;1.48;;;;;;;;;;5042309;28;20032;-78
2022/06/24 10:30:39;;;;;;;5.32;1.42;;;;;;;;;;5024751;28;20041;-83
2022/06/24 10:33:11;;;;;;;3.42;1.50;;;;;;;;;;5044353;28;20121;-79
2022/06/24 10:35:56;;;;;;;3.75;1.38;;;;;;;;;;5029199;28;20043;-80
2022/06/24 10:38:25;;;;;;;3.40;1.60;;;;;;;;;;5036667;28;20496;-78
2022/06/24 10:40:52;;;;;;;3.08;1.92;;;;;;;;;;5032100;28;20113;-79
2022/06/24 10:43:36;;;;;;;5.88;2.53;;;;;;;;;;5060114;28;20489;-78
2022/06/24 10:46:11;;;;;;;3.30;1.67;;;;;;;;;;5021184;28;20171;-78
2022/06/24 10:48:57;;;;;;;5.93;1.50;;;;;;;;;;5034169;28;20049;-77
2022/06/24 10:51:23;;;;;;;3.53;1.70;;;;;;;;;;5040942;28;20275;-78
2022/06/24 10:54:01;;;;;;;3.35;2.00;;;;;;;;;;5035033;28;20071;-77
2022/06/24 10:56:38;;;;;;;4.50;1.80;;;;;;;;;;5030927;28;20037;-78
2022/06/24 10:59:04;;;;;;;2.63;1.50;;;;;;;;;;5032515;28;20551;-78
2022/06/24 11:01:29;;;;;;;4.40;1.48;;;;;;;;;;5030927;28;20050;-78
2022/06/24 11:03:55;;;;;;;3.38;1.38;;;;;;;;;;5040475;28;20039;-78
2022/06/24 11:06:20;;;;;;;3.00;1.20;;;;;;;;;;5013628;28;20033;-78
2022/06/24 11:08:46;;;;;;;2.58;1.40;;;;;;;;;;5021830;28;20132;-77
2022/06/24 11:11:24;;;;;;;3.45;1.42;;;;;;;;;;5038420;28;20037;-78
2022/06/24 11:13:50;;;;;;;4.18;1.30;;;;;;;;;;5017905;28;20037;-79
2022/06/24 11:16:15;;;;;;;2.58;1.50;;;;;;;;;;5032701;28;20117;-77
2022/06/24 11:18:42;;;;;;;4.05;1.42;;;;;;;;;;5043214;28;20492;-78
2022/06/24 11:21:08;;;;;;;2.28;1.38;;;;;;;;;;5015578;28;20024;-78
2022/06/24 11:23:34;;;;;;;2.45;1.33;;;;;;;;;;5049525;28;20052;-78
2022/06/24 11:26:05;;;;;;;4.45;1.42;;;;;;;;;;5048619;28;20025;-78
2022/06/24 11:28:34;;;;;;;2.58;1.10;;;;;;;;;;5029767;28;20026;-78
2022/06/24 11:31:19;;;;;;;4.35;1.40;;;;;;;;;;5041372;28;20052;-78
2022/06/24 11:33:45;;;;;;;3.55;1.42;;;;;;;;;;5045812;28;20068;-78
2022/06/24 11:36:10;;;;;;;1.92;1.40;;;;;;;;;;5027539;28;20032;-77
2022/06/24 11:38:49;;;;;;;2.60;1.40;;;;;;;;;;5027122;28;20055;-79
2022/06/24 11:41:21;;;;;;;3.90;1.63;;;;;;;;;;5034713;28;20045;-78
2022/06/24 11:43:50;;;;;;;3.42;1.40;;;;;;;;;;5045482;28;20090;-78
2022/06/24 11:46:16;;;;;;;4.18;1.50;;;;;;;;;;5018955;28;20048;-77
2022/06/24 11:48:41;;;;;;;3.10;1.20;;;;;;;;;;5038962;28;20030;-78
2022/06/24 11:51:07;;;;;;;3.78;1.60;;;;;;;;;;5039062;28;20474;-78
2022/06/24 11:53:32;;;;;;;2.65;1.27;;;;;;;;;;5019715;28;20032;-78
2022/06/24 11:55:58;;;;;;;4.15;1.30;;;;;;;;;;5039076;28;20083;-77
2022/06/24 11:58:23;;;;;;;4.63;1.40;;;;;;;;;;5006057;28;20037;-78
2022/06/24 12:00:50;;;;;;;6.22;1.33;;;;;;;;;;5036062;28;20053;-78
2022/06/24 12:03:15;;;;;;;3.78;1.52;;;;;;;;;;5034163;28;20033;-77
2022/06/24 12:05:41;;;;;;;2.42;1.38;;;;;;;;;;5031527;28;20017;-77
2022/06/24 12:08:07;;;;;;;3.40;1.50;;;;;;;;;;5030225;28;20040;-77
2022/06/24 12:10:32;;;;;;;4.28;1.50;;;;;;;;;;5030029;28;20518;-78
2022/06/24 12:13:00;;;;;;;2.28;1.30;;;;;;;;;;5011283;28;20053;-78
2022/06/24 12:15:26;;;;;;;2.40;1.30;;;;;;;;;;5019120;28;20075;-79
2022/06/24 12:17:53;;;;;;;3.88;1.40;;;;;;;;;;5031211;28;20037;-79
2022/06/24 12:20:23;;;;;;;2.30;1.10;;;;;;;;;;5038737;28;20040;-78
2022/06/24 12:23:08;;;;;;;1.98;1.20;;;;;;;;;;5028419;28;20029;-77
2022/06/24 12:25:41;;;;;;;2.70;1.50;;;;;;;;;;5036136;28;20046;-77
2022/06/24 12:28:35;;;;;;;2.38;1.30;;;;;;;;;;5031195;28;20079;-78
2022/06/24 12:31:04;;;;;;;1.70;1.17;;;;;;;;;;5040618;28;20498;-79
2022/06/24 12:33:34;;;;;;;6.22;1.30;;;;;;;;;;5034653;28;20030;-78
2022/06/24 12:36:03;;;;;;;4.32;1.27;;;;;;;;;;5032952;28;20044;-78
2022/06/24 12:38:28;;;;;;;5.00;1.58;;;;;;;;;;5038513;28;20025;-78
2022/06/24 12:41:04;;;;;;;3.75;1.50;;;;;;;;;;5040829;28;20044;-78
2022/06/24 12:43:30;;;;;;;3.38;1.40;;;;;;;;;;5040504;28;20091;-77
2022/06/24 12:45:56;;;;;;;2.30;1.30;;;;;;;;;;5033765;28;20033;-77
2022/06/24 12:51:06;;;;;;;3.75;1.40;;;;;;;;;;5035975;28;20037;-78
2022/06/24 12:53:31;;;;;;;3.75;1.63;;;;;;;;;;5038857;28;20028;-79
2022/06/24 12:55:57;;;;;;;2.42;1.48;;;;;;;;;;5043758;28;20040;-79
2022/06/24 12:58:23;;;;;;;3.50;1.40;;;;;;;;;;5017120;28;20384;-80
2022/06/24 13:00:48;;;;;;;3.97;1.40;;;;;;;;;;5031422;28;20045;-78
2022/06/24 13:03:17;;;;;;;3.15;1.30;;;;;;;;;;5039004;28;20029;-77
2022/06/24 13:05:43;;;;;;;3.67;1.40;;;;;;;;;;5037687;28;20048;-77
2022/06/24 13:08:08;;;;;;;2.22;1.40;;;;;;;;;;5039548;28;20021;-79
2022/06/24 13:10:35;;;;;;;3.30;1.33;;;;;;;;;;5038023;28;20034;-78
2022/06/24 13:13:00;;;;;;;3.38;1.25;;;;;;;;;;5038914;28;20409;-78
2022/06/24 13:15:26;;;;;;;2.63;1.40;;;;;;;;;;5041987;28;20044;-79
2022/06/24 13:17:51;;;;;;;3.95;1.55;;;;;;;;;;5035601;28;20048;-78
2022/06/24 13:20:17;;;;;;;2.35;1.20;;;;;;;;;;5043497;28;20029;-78
2022/06/24 13:22:42;;;;;;;2.63;1.20;;;;;;;;;;5031253;28;20083;-78
2022/06/24 13:25:08;;;;;;;2.70;1.40;;;;;;;;;;5048940;28;20037;-78
2022/06/24 13:27:34;;;;;;;4.10;1.48;;;;;;;;;;5031184;28;20071;-78
2022/06/24 13:29:59;;;;;;;2.35;1.30;;;;;;;;;;5036778;28;20038;-77
2022/06/24 13:32:25;;;;;;;3.72;1.85;;;;;;;;;;5042918;28;20041;-78
2022/06/24 13:34:50;;;;;;;7.10;1.60;;;;;;;;;;5048640;28;20151;-77
2022/06/24 13:37:16;;;;;;;4.28;1.95;;;;;;;;;;5051229;28;20032;-77
2022/06/24 13:39:41;;;;;;;3.53;1.70;;;;;;;;;;5049632;28;20048;-78
2022/06/24 13:42:07;;;;;;;6.07;2.13;;;;;;;;;;5032479;28;21109;-79
2022/06/24 13:44:35;;;;;;;4.03;1.77;;;;;;;;;;5048947;28;20057;-79
2022/06/24 13:47:01;;;;;;;3.33;1.92;;;;;;;;;;5036264;28;20373;-78
2022/06/24 13:49:26;;;;;;;4.38;1.70;;;;;;;;;;5049654;28;20025;-78
2022/06/24 13:51:52;;;;;;;4.85;1.65;;;;;;;;;;5045730;28;20021;-77
2022/06/24 13:54:18;;;;;;;4.53;1.73;;;;;;;;;;5048692;28;20091;-77
2022/06/24 13:56:43;;;;;;;2.35;1.77;;;;;;;;;;5039744;28;20404;-77
2022/06/24 13:59:08;;;;;;;3.47;1.73;;;;;;;;;;5033597;28;20034;-78
2022/06/24 14:01:34;;;;;;;5.50;1.73;;;;;;;;;;5039898;28;20046;-77
2022/06/24 14:03:59;;;;;;;2.00;1.40;;;;;;;;;;5042027;28;20055;-78
2022/06/24 14:06:25;;;;;;;3.78;1.50;;;;;;;;;;5041964;28;20072;-77
2022/06/24 14:08:50;;;;;;;2.47;1.50;;;;;;;;;;5040807;28;20037;-77
2022/06/24 14:11:17;;;;;;;5.55;1.60;;;;;;;;;;5043007;28;20067;-77
2022/06/24 14:13:42;;;;;;;2.88;1.60;;;;;;;;;;5046885;28;20033;-79
2022/06/24 14:16:08;;;;;;;2.90;1.80;;;;;;;;;;5036566;28;20052;-78
2022/06/24 14:18:35;;;;;;;3.53;1.77;;;;;;;;;;5025152;28;20041;-79
2022/06/24 14:21:01;;;;;;;5.53;2.15;;;;;;;;;;5044228;28;20029;-78
2022/06/24 14:26:11;;;;;;;3.03;1.60;;;;;;;;;;5037513;28;20030;-77
2022/06/24 14:28:36;;;;;;;4.07;1.70;;;;;;;;;;5023314;28;20485;-79
2022/06/24 14:31:03;;;;;;;3.55;1.50;;;;;;;;;;5036519;28;20048;-79
2022/06/24 14:33:29;;;;;;;2.70;1.65;;;;;;;;;;5040102;28;20084;-79
2022/06/24 14:35:54;;;;;;;4.85;1.80;;;;;;;;;;5039746;28;20408;-78
2022/06/24 14:41:04;;;;;;;3.58;1.60;;;;;;;;;;5034719;28;20040;-78
2022/06/24 14:43:29;;;;;;;5.85;1.92;;;;;;;;;;5032430;28;20101;-78
2022/06/24 14:45:55;;;;;;;5.50;1.88;;;;;;;;;;5046571;28;20032;-77
2022/06/24 14:48:20;;;;;;;5.45;1.90;;;;;;;;;;5037216;28;20541;-78
2022/06/24 14:50:46;;;;;;;8.15;1.85;;;;;;;;;;5036868;28;20034;-77
2022/06/24 14:53:11;;;;;;;4.18;1.90;;;;;;;;;;5042956;28;20033;-81
2022/06/24 14:55:37;;;;;;;3.10;1.55;;;;;;;;;;5038672;28;20025;-78
2022/06/24 14:58:02;;;;;;;7.05;2.72;;;;;;;;;;5038770;28;20029;-78
2022/06/24 15:00:28;;;;;;;4.13;1.65;;;;;;;;;;5038137;28;20079;-78